Time;durP1;ratioP1;P1;durP2;ratioP2;P2;SDS_P1;SDS_P2;PMS_P1;PMS_P2;Temp;Humidity;BMP_temperature;BMP_pressure;BME280_temperature;BME280_humidity;BME280_pressure;Samples;Min_cycle;Max_cycle;Signal;HPM_P1;HPM_P2
2023/12/27 00:02:02;;;;;;;8.05;3.30;;;;;;;;;;5053179;28;20087;-71
2023/12/27 00:04:28;;;;;;;9.27;4.43;;;;;;;;;;5053516;28;20029;-71
2023/12/27 00:06:55;;;;;;;8.40;3.95;;;;;;;;;;5053081;28;20090;-70
2023/12/27 00:09:21;;;;;;;11.98;3.80;;;;;;;;;;5053143;28;20469;-71
2023/12/27 00:11:46;;;;;;;10.30;3.70;;;;;;;;;;5053159;28;20078;-71
2023/12/27 00:14:12;;;;;;;8.07;3.97;;;;;;;;;;5053088;28;20025;-71
2023/12/27 00:16:38;;;;;;;6.97;3.67;;;;;;;;;;5052727;28;20021;-70
2023/12/27 00:19:03;;;;;;;16.13;4.28;;;;;;;;;;5052934;28;20028;-70
2023/12/27 00:21:29;;;;;;;9.13;3.78;;;;;;;;;;5052920;28;20436;-70
2023/12/27 00:23:55;;;;;;;11.13;3.35;;;;;;;;;;5052878;28;20025;-71
2023/12/27 00:26:20;;;;;;;6.00;3.45;;;;;;;;;;5053411;28;20483;-70
2023/12/27 00:28:46;;;;;;;8.00;3.80;;;;;;;;;;5052875;28;20102;-70
2023/12/27 00:31:12;;;;;;;13.38;3.58;;;;;;;;;;5052833;28;20029;-70
2023/12/27 00:33:38;;;;;;;7.40;3.42;;;;;;;;;;5053045;28;20028;-70
2023/12/27 00:36:04;;;;;;;9.13;3.60;;;;;;;;;;5052653;28;20037;-70
2023/12/27 00:38:29;;;;;;;7.43;3.47;;;;;;;;;;5052938;28;20032;-70
2023/12/27 00:40:55;;;;;;;9.07;3.67;;;;;;;;;;5052962;28;20382;-70
2023/12/27 00:43:21;;;;;;;7.15;3.53;;;;;;;;;;5053213;28;20032;-70
2023/12/27 00:45:46;;;;;;;10.45;3.67;;;;;;;;;;5052670;28;20448;-70
2023/12/27 00:48:12;;;;;;;8.20;3.75;;;;;;;;;;5052508;28;20103;-70
2023/12/27 00:50:37;;;;;;;10.98;3.78;;;;;;;;;;5052479;28;20115;-70
2023/12/27 09:44:58;;;;;;;3.20;2.80;;;;;;;;;;5671456;23;20555;-65
2023/12/27 09:47:28;;;;;;;4.63;2.72;;;;;;;;;;4915839;29;20504;-70
2023/12/27 09:49:56;;;;;;;3.38;2.47;;;;;;;;;;4919016;29;20047;-68
2023/12/27 09:52:23;;;;;;;3.58;2.40;;;;;;;;;;4919522;29;20028;-65
2023/12/27 09:54:49;;;;;;;2.55;2.30;;;;;;;;;;4919449;29;20025;-65
2023/12/27 09:57:15;;;;;;;5.03;2.45;;;;;;;;;;4919266;29;20040;-68
2023/12/27 09:59:45;;;;;;;2.90;2.67;;;;;;;;;;4916789;29;20039;-66
2023/12/27 10:02:18;;;;;;;3.15;2.20;;;;;;;;;;4918233;29;20047;-69
2023/12/27 10:04:52;;;;;;;5.45;2.55;;;;;;;;;;4901211;29;20031;-67
2023/12/27 10:07:21;;;;;;;4.70;2.67;;;;;;;;;;4917424;29;20032;-65
2023/12/27 10:09:46;;;;;;;3.78;2.20;;;;;;;;;;4916161;29;20125;-65
2023/12/27 10:12:14;;;;;;;2.85;2.40;;;;;;;;;;4918300;29;20496;-65
2023/12/27 10:14:40;;;;;;;3.75;2.63;;;;;;;;;;4918110;29;20020;-64
2023/12/27 10:17:06;;;;;;;3.42;2.65;;;;;;;;;;4916579;29;20063;-65
2023/12/27 10:19:42;;;;;;;3.72;2.30;;;;;;;;;;4917076;29;20091;-67
2023/12/27 10:22:09;;;;;;;3.00;2.53;;;;;;;;;;4917149;29;20032;-66
2023/12/27 10:24:36;;;;;;;3.25;2.35;;;;;;;;;;4917674;29;20381;-66
2023/12/27 10:27:09;;;;;;;4.40;2.55;;;;;;;;;;4917780;29;20031;-65
2023/12/27 10:29:35;;;;;;;2.28;2.08;;;;;;;;;;4916850;29;20028;-66
2023/12/27 10:32:02;;;;;;;2.67;2.30;;;;;;;;;;4900855;29;20793;-65
2023/12/27 10:34:28;;;;;;;2.67;2.35;;;;;;;;;;4916728;29;20092;-66
2023/12/27 10:36:55;;;;;;;5.88;2.70;;;;;;;;;;4917907;29;20468;-68
2023/12/27 10:39:21;;;;;;;3.08;2.47;;;;;;;;;;4916862;29;20031;-68
2023/12/27 10:41:47;;;;;;;3.00;2.33;;;;;;;;;;4917721;29;20524;-66
2023/12/27 10:44:17;;;;;;;4.43;2.53;;;;;;;;;;4917616;29;20370;-65
2023/12/27 10:46:43;;;;;;;4.13;2.30;;;;;;;;;;4917524;29;20541;-65
2023/12/27 10:49:11;;;;;;;5.53;2.40;;;;;;;;;;4917821;29;20381;-69
2023/12/27 10:51:39;;;;;;;3.55;2.60;;;;;;;;;;4915253;29;20035;-65
2023/12/27 10:54:05;;;;;;;2.83;2.53;;;;;;;;;;4917412;29;20032;-66
2023/12/27 10:56:38;;;;;;;4.18;2.60;;;;;;;;;;4917604;29;20047;-66
2023/12/27 10:59:10;;;;;;;2.63;2.40;;;;;;;;;;4916721;29;20024;-65
2023/12/27 11:01:38;;;;;;;3.67;2.47;;;;;;;;;;4916559;29;20499;-64
2023/12/27 11:04:07;;;;;;;4.38;2.20;;;;;;;;;;4917303;29;20028;-65
2023/12/27 11:06:38;;;;;;;4.63;2.57;;;;;;;;;;4917226;29;20036;-64
2023/12/27 11:09:07;;;;;;;;;;;;;;;;;;4917912;29;20030;-66
2023/12/27 11:11:40;;;;;;;3.70;2.65;;;;;;;;;;4917031;29;20320;-64
2023/12/27 11:14:08;;;;;;;4.03;2.50;;;;;;;;;;4909436;29;20060;-66
2023/12/27 11:16:35;;;;;;;3.83;2.42;;;;;;;;;;4908696;29;20051;-66
2023/12/27 11:19:03;;;;;;;3.13;2.65;;;;;;;;;;4908000;29;20029;-64
2023/12/27 11:21:29;;;;;;;2.90;2.33;;;;;;;;;;4917896;29;20060;-64
2023/12/27 11:23:55;;;;;;;3.90;2.60;;;;;;;;;;4918037;29;20074;-64
2023/12/27 11:26:21;;;;;;;2.40;2.20;;;;;;;;;;4912285;29;20024;-63
2023/12/27 11:28:47;;;;;;;3.85;2.50;;;;;;;;;;4909775;29;20032;-64
2023/12/27 11:31:13;;;;;;;3.70;2.60;;;;;;;;;;4905279;29;20382;-63
2023/12/27 11:33:42;;;;;;;2.40;2.17;;;;;;;;;;4905276;29;20032;-64
2023/12/27 11:36:08;;;;;;;2.63;2.40;;;;;;;;;;4905400;29;20020;-64
2023/12/27 11:38:35;;;;;;;3.72;2.35;;;;;;;;;;4909704;29;20032;-64
2023/12/27 11:41:01;;;;;;;3.17;2.35;;;;;;;;;;4916487;29;20437;-63
2023/12/27 11:43:47;;;;;;;3.90;2.70;;;;;;;;;;4917753;29;20024;-68
2023/12/27 11:46:13;;;;;;;3.38;2.75;;;;;;;;;;4900950;29;20056;-72
2023/12/27 11:48:38;;;;;;;4.25;2.30;;;;;;;;;;4913516;29;20031;-72
2023/12/27 11:51:36;;;;;;;2.47;2.28;;;;;;;;;;4917549;29;20103;-71
2023/12/27 11:54:03;;;;;;;3.42;2.50;;;;;;;;;;4917477;29;20063;-72
2023/12/27 11:56:30;;;;;;;3.22;2.42;;;;;;;;;;4917354;29;20396;-64
2023/12/27 11:58:56;;;;;;;2.60;2.40;;;;;;;;;;4914819;29;20031;-69
2023/12/27 12:01:35;;;;;;;3.17;2.20;;;;;;;;;;4909162;29;20028;-71
2023/12/27 12:04:09;;;;;;;4.20;2.40;;;;;;;;;;4909327;29;20025;-68
2023/12/27 12:06:43;;;;;;;2.20;2.00;;;;;;;;;;4894978;29;20032;-69
2023/12/27 12:09:09;;;;;;;9.18;2.20;;;;;;;;;;4907027;29;20028;-69
2023/12/27 12:11:35;;;;;;;2.30;2.10;;;;;;;;;;4915321;29;20469;-69
2023/12/27 12:14:01;;;;;;;4.50;2.30;;;;;;;;;;4917093;29;20054;-67
2023/12/27 12:16:32;;;;;;;3.05;2.08;;;;;;;;;;4916973;29;20092;-71
2023/12/27 12:19:03;;;;;;;8.70;2.30;;;;;;;;;;4917063;29;20485;-68
2023/12/27 12:21:30;;;;;;;4.97;2.42;;;;;;;;;;4916975;29;20087;-68
2023/12/27 12:23:57;;;;;;;3.13;2.22;;;;;;;;;;4917219;29;20028;-67
2023/12/27 12:26:23;;;;;;;3.70;2.17;;;;;;;;;;4916898;29;20502;-67
2023/12/27 12:28:55;;;;;;;3.20;2.30;;;;;;;;;;4916731;29;20112;-68
2023/12/27 12:31:21;;;;;;;9.40;2.30;;;;;;;;;;4916839;29;20543;-67
2023/12/27 12:33:47;;;;;;;3.45;2.22;;;;;;;;;;4916691;29;20036;-68
2023/12/27 12:36:13;;;;;;;4.45;2.17;;;;;;;;;;4916587;29;20032;-67
2023/12/27 12:38:39;;;;;;;5.40;2.20;;;;;;;;;;4916752;29;20032;-67
2023/12/27 12:41:04;;;;;;;3.47;2.35;;;;;;;;;;4916822;29;20035;-68
2023/12/27 12:43:30;;;;;;;3.80;2.45;;;;;;;;;;4916623;29;20501;-71
2023/12/27 12:45:57;;;;;;;5.03;2.33;;;;;;;;;;4916411;29;20067;-68
2023/12/27 12:48:26;;;;;;;8.52;2.33;;;;;;;;;;4913373;29;20119;-71
2023/12/27 12:51:12;;;;;;;4.43;2.23;;;;;;;;;;4915138;29;20023;-67
2023/12/27 12:53:38;;;;;;;2.22;2.00;;;;;;;;;;4915322;29;20032;-69
2023/12/27 12:56:06;;;;;;;4.28;2.20;;;;;;;;;;4915787;29;20032;-68
2023/12/27 12:58:33;;;;;;;3.97;2.30;;;;;;;;;;4914829;29;20021;-67
2023/12/27 13:00:59;;;;;;;4.20;2.30;;;;;;;;;;4913908;29;20029;-67
2023/12/27 13:03:26;;;;;;;7.28;2.47;;;;;;;;;;4915345;29;20024;-67
2023/12/27 13:05:52;;;;;;;7.88;2.45;;;;;;;;;;4896439;29;20032;-67
2023/12/27 13:08:18;;;;;;;3.13;2.38;;;;;;;;;;4914580;29;20024;-67
2023/12/27 13:10:45;;;;;;;3.67;2.10;;;;;;;;;;4915900;29;20473;-67
2023/12/27 13:13:12;;;;;;;4.50;2.17;;;;;;;;;;4916295;29;20028;-67
2023/12/27 13:15:37;;;;;;;4.80;2.45;;;;;;;;;;4916236;29;20024;-67
2023/12/27 13:18:03;;;;;;;6.13;2.38;;;;;;;;;;4899431;29;20374;-68
2023/12/27 13:20:29;;;;;;;3.65;2.10;;;;;;;;;;4916311;29;20020;-67
2023/12/27 13:22:55;;;;;;;4.40;2.38;;;;;;;;;;4918169;29;20103;-67
2023/12/27 13:25:20;;;;;;;4.10;2.33;;;;;;;;;;4920998;29;20086;-67
2023/12/27 13:27:46;;;;;;;5.10;2.08;;;;;;;;;;4903284;29;20036;-67
2023/12/27 13:30:13;;;;;;;5.43;2.20;;;;;;;;;;4920079;29;20106;-67
2023/12/27 13:32:38;;;;;;;4.47;2.10;;;;;;;;;;4920073;29;20500;-66
2023/12/27 13:35:04;;;;;;;4.72;2.20;;;;;;;;;;4919974;29;20028;-66
2023/12/27 13:37:30;;;;;;;5.15;2.50;;;;;;;;;;4919868;29;20106;-66
2023/12/27 13:39:56;;;;;;;2.63;2.22;;;;;;;;;;4919751;29;20028;-66
2023/12/27 13:42:22;;;;;;;4.95;2.25;;;;;;;;;;4919857;29;20024;-67
2023/12/27 13:44:48;;;;;;;3.70;2.10;;;;;;;;;;4921104;29;20043;-66
2023/12/27 13:47:18;;;;;;;7.28;2.42;;;;;;;;;;4919807;29;20039;-66
2023/12/27 13:49:43;;;;;;;5.70;2.20;;;;;;;;;;4919703;29;20040;-66
2023/12/27 13:52:09;;;;;;;3.60;2.33;;;;;;;;;;4902792;29;20120;-66
2023/12/27 13:54:35;;;;;;;4.45;2.30;;;;;;;;;;4919602;29;20036;-66
2023/12/27 13:57:01;;;;;;;4.57;2.17;;;;;;;;;;4919516;29;20111;-67
2023/12/27 13:59:27;;;;;;;6.38;2.33;;;;;;;;;;4902544;29;20039;-66
2023/12/27 14:01:54;;;;;;;3.78;2.28;;;;;;;;;;4919511;29;20111;-67
2023/12/27 14:04:20;;;;;;;4.47;2.60;;;;;;;;;;4919518;29;20032;-67
2023/12/27 14:06:46;;;;;;;3.13;2.10;;;;;;;;;;4919428;29;20028;-66
2023/12/27 14:09:14;;;;;;;3.72;2.15;;;;;;;;;;4920362;29;20028;-66
2023/12/27 14:11:41;;;;;;;3.00;2.10;;;;;;;;;;4919764;29;20068;-67
2023/12/27 14:14:07;;;;;;;4.30;2.30;;;;;;;;;;4919976;29;20028;-66
2023/12/27 14:16:32;;;;;;;4.28;2.13;;;;;;;;;;4919124;29;20429;-66
2023/12/27 14:18:58;;;;;;;6.25;2.15;;;;;;;;;;4920987;29;20028;-66
2023/12/27 14:21:24;;;;;;;3.20;2.15;;;;;;;;;;4919147;29;20024;-66
2023/12/27 14:23:50;;;;;;;4.15;2.05;;;;;;;;;;4919155;29;20493;-66
2023/12/27 14:26:16;;;;;;;4.85;2.50;;;;;;;;;;4919097;29;20110;-66
2023/12/27 14:28:43;;;;;;;3.95;1.80;;;;;;;;;;4919240;29;20032;-66
2023/12/27 14:31:16;;;;;;;9.77;2.30;;;;;;;;;;4919026;29;20039;-66
2023/12/27 14:33:46;;;;;;;4.88;2.25;;;;;;;;;;4918882;29;20043;-66
2023/12/27 14:36:12;;;;;;;7.05;2.50;;;;;;;;;;4919956;29;20420;-66
2023/12/27 14:38:40;;;;;;;2.65;2.15;;;;;;;;;;4918921;29;20035;-67
2023/12/27 14:41:06;;;;;;;5.70;2.15;;;;;;;;;;4918843;29;20080;-67
2023/12/27 14:43:33;;;;;;;3.22;2.28;;;;;;;;;;4919004;29;20028;-67
2023/12/27 14:45:59;;;;;;;4.53;1.90;;;;;;;;;;4918605;29;20051;-66
2023/12/27 14:48:29;;;;;;;4.68;2.33;;;;;;;;;;4918679;29;20047;-67
2023/12/27 14:50:54;;;;;;;;;;;;;;;;;;4919398;29;20431;-66
2023/12/27 14:53:20;;;;;;;2.70;1.90;;;;;;;;;;4918606;29;20372;-67
2023/12/27 14:55:46;;;;;;;4.80;2.25;;;;;;;;;;4918489;29;20044;-66
2023/12/27 14:58:11;;;;;;;3.78;1.80;;;;;;;;;;4918584;29;20056;-66
2023/12/27 15:00:37;;;;;;;4.38;2.28;;;;;;;;;;4918471;29;20385;-66
2023/12/27 15:03:03;;;;;;;4.78;2.20;;;;;;;;;;4918382;29;20032;-66
2023/12/27 15:05:29;;;;;;;3.40;2.20;;;;;;;;;;4918448;29;20103;-66
2023/12/27 15:07:54;;;;;;;5.05;2.40;;;;;;;;;;4918268;29;20089;-66
2023/12/27 15:10:20;;;;;;;8.85;2.17;;;;;;;;;;4918787;29;20381;-66
2023/12/27 15:12:47;;;;;;;3.60;2.30;;;;;;;;;;4918261;29;20030;-66
2023/12/27 15:15:14;;;;;;;3.53;2.40;;;;;;;;;;4918121;29;20068;-66
2023/12/27 15:17:40;;;;;;;4.22;2.30;;;;;;;;;;4918119;29;20024;-66
2023/12/27 15:20:07;;;;;;;4.07;2.22;;;;;;;;;;4918381;29;20028;-66
2023/12/27 15:22:33;;;;;;;3.50;1.88;;;;;;;;;;4918343;29;20040;-66
2023/12/27 15:24:59;;;;;;;2.17;1.80;;;;;;;;;;4918047;29;20055;-66
2023/12/27 15:27:27;;;;;;;3.75;2.55;;;;;;;;;;4918000;29;20548;-66
2023/12/27 15:29:57;;;;;;;4.72;2.30;;;;;;;;;;4917939;29;20035;-66
2023/12/27 15:32:23;;;;;;;6.90;2.38;;;;;;;;;;4917838;29;20024;-66
2023/12/27 15:34:49;;;;;;;2.88;2.00;;;;;;;;;;4917871;29;20032;-66
2023/12/27 15:37:16;;;;;;;5.07;2.13;;;;;;;;;;4917676;29;20054;-66
2023/12/27 15:39:46;;;;;;;3.92;2.25;;;;;;;;;;4917711;29;20034;-66
2023/12/27 15:42:12;;;;;;;3.13;2.30;;;;;;;;;;4917957;29;20024;-66
2023/12/27 15:44:37;;;;;;;4.57;2.25;;;;;;;;;;4917713;29;20386;-67
2023/12/27 15:47:08;;;;;;;3.30;1.90;;;;;;;;;;4916658;29;20489;-66
2023/12/27 15:49:37;;;;;;;3.83;2.10;;;;;;;;;;4901517;29;20043;-66
2023/12/27 15:52:03;;;;;;;4.88;2.28;;;;;;;;;;4917478;29;20031;-66
2023/12/27 15:54:28;;;;;;;3.20;2.20;;;;;;;;;;4917475;29;20028;-66
2023/12/27 15:56:54;;;;;;;4.97;2.20;;;;;;;;;;4917587;29;20032;-66
2023/12/27 15:59:21;;;;;;;5.13;2.10;;;;;;;;;;4917314;29;20051;-66
2023/12/27 16:01:47;;;;;;;2.83;1.88;;;;;;;;;;4915548;29;20039;-66
2023/12/27 16:04:17;;;;;;;3.83;2.25;;;;;;;;;;4917370;29;20409;-67
2023/12/27 16:06:43;;;;;;;;;;;;;;;;;;4917760;29;20039;-66
2023/12/27 16:09:10;;;;;;;5.60;2.15;;;;;;;;;;4917235;29;19915;-66
2023/12/27 16:11:39;;;;;;;3.35;2.83;;;;;;;;;;4917044;29;20385;-68
2023/12/27 16:14:06;;;;;;;3.78;2.10;;;;;;;;;;4917452;29;20467;-67
2023/12/27 16:16:32;;;;;;;8.73;2.40;;;;;;;;;;4916902;29;20473;-68
2023/12/27 16:18:59;;;;;;;6.05;2.38;;;;;;;;;;4917171;29;20036;-69
2023/12/27 16:21:25;;;;;;;4.13;2.05;;;;;;;;;;4917143;29;20028;-68
2023/12/27 16:23:50;;;;;;;3.70;2.17;;;;;;;;;;4917077;29;20095;-68
2023/12/27 16:26:17;;;;;;;2.47;1.80;;;;;;;;;;4916824;29;20024;-66
2023/12/27 16:28:42;;;;;;;4.35;2.17;;;;;;;;;;4917127;29;20055;-67
2023/12/27 16:31:08;;;;;;;2.58;2.10;;;;;;;;;;4916861;29;20028;-68
2023/12/27 16:33:34;;;;;;;5.45;2.13;;;;;;;;;;4916793;29;20039;-69
2023/12/27 16:36:01;;;;;;;3.15;1.98;;;;;;;;;;4916700;29;20056;-68
2023/12/27 16:38:27;;;;;;;4.93;2.33;;;;;;;;;;4916714;29;20516;-66
2023/12/27 16:40:54;;;;;;;4.65;2.30;;;;;;;;;;4916466;29;20061;-67
2023/12/27 16:43:22;;;;;;;3.97;2.03;;;;;;;;;;4916711;29;20055;-67
2023/12/27 16:45:48;;;;;;;8.60;2.17;;;;;;;;;;4916304;29;20044;-69
2023/12/27 16:48:15;;;;;;;2.10;1.90;;;;;;;;;;4916452;29;20028;-67
2023/12/27 16:50:44;;;;;;;3.70;2.50;;;;;;;;;;4899446;29;20432;-66
2023/12/27 16:53:09;;;;;;;2.30;2.08;;;;;;;;;;4916560;29;20024;-67
2023/12/27 16:55:35;;;;;;;3.03;1.77;;;;;;;;;;4912005;29;20054;-66
2023/12/27 16:58:02;;;;;;;4.47;2.10;;;;;;;;;;4914596;29;20112;-66
2023/12/27 17:00:28;;;;;;;2.92;2.25;;;;;;;;;;4915370;29;20036;-68
2023/12/27 17:02:54;;;;;;;6.82;2.00;;;;;;;;;;4914510;29;20036;-68
2023/12/27 17:05:20;;;;;;;4.25;2.20;;;;;;;;;;4915027;29;20024;-67
2023/12/27 17:07:47;;;;;;;2.97;2.08;;;;;;;;;;4914948;29;20063;-68
2023/12/27 17:10:13;;;;;;;3.92;2.22;;;;;;;;;;4914904;29;20477;-68
2023/12/27 17:12:41;;;;;;;4.35;2.30;;;;;;;;;;4919925;29;20495;-67
2023/12/27 17:15:08;;;;;;;4.40;2.13;;;;;;;;;;4933599;29;20040;-68
2023/12/27 17:17:33;;;;;;;3.70;1.88;;;;;;;;;;4933502;29;20063;-68
2023/12/27 17:20:00;;;;;;;6.72;2.50;;;;;;;;;;4933731;29;20062;-68
2023/12/27 17:22:26;;;;;;;2.33;2.08;;;;;;;;;;4933625;29;20031;-67
2023/12/27 17:24:52;;;;;;;4.90;2.40;;;;;;;;;;4933468;29;20126;-67
2023/12/27 17:27:20;;;;;;;3.38;2.08;;;;;;;;;;4933608;29;20106;-67
2023/12/27 17:29:50;;;;;;;2.75;1.90;;;;;;;;;;4933491;29;20107;-67
2023/12/27 17:32:19;;;;;;;;;;;;;;;;;;4934235;29;20032;-67
2023/12/27 17:34:44;;;;;;;3.38;1.90;;;;;;;;;;4933661;29;20013;-67
2023/12/27 17:37:10;;;;;;;4.45;1.90;;;;;;;;;;4933681;29;20119;-67
2023/12/27 17:39:36;;;;;;;2.88;1.98;;;;;;;;;;4933432;29;20028;-67
2023/12/27 17:42:04;;;;;;;4.18;2.00;;;;;;;;;;4933569;29;20035;-68
2023/12/27 17:44:30;;;;;;;2.28;1.90;;;;;;;;;;4933177;29;20035;-68
2023/12/27 17:46:55;;;;;;;5.43;2.10;;;;;;;;;;4933389;29;20036;-66
2023/12/27 17:49:21;;;;;;;3.70;1.90;;;;;;;;;;4933304;29;20031;-67
2023/12/27 17:51:46;;;;;;;6.18;2.40;;;;;;;;;;4933234;29;20082;-68
2023/12/27 17:54:12;;;;;;;5.15;2.13;;;;;;;;;;4916113;29;20066;-67
2023/12/27 17:56:37;;;;;;;4.13;2.20;;;;;;;;;;4933320;29;20070;-67
2023/12/27 17:59:03;;;;;;;4.05;2.22;;;;;;;;;;4933242;29;20034;-67
2023/12/27 18:01:28;;;;;;;8.30;2.00;;;;;;;;;;4933285;29;20052;-67
2023/12/27 18:03:54;;;;;;;6.13;2.35;;;;;;;;;;4933584;29;20091;-68
2023/12/27 18:06:19;;;;;;;2.55;2.15;;;;;;;;;;4933282;29;20036;-66
2023/12/27 18:08:46;;;;;;;2.58;1.85;;;;;;;;;;4933281;29;20056;-67
2023/12/27 18:11:12;;;;;;;9.25;2.30;;;;;;;;;;4937007;29;20373;-67
2023/12/27 18:13:38;;;;;;;7.43;2.15;;;;;;;;;;4919576;29;20467;-67
2023/12/27 18:16:06;;;;;;;5.80;2.20;;;;;;;;;;4936962;29;20068;-67
2023/12/27 18:18:32;;;;;;;9.73;2.30;;;;;;;;;;4936427;29;20507;-66
2023/12/27 18:20:58;;;;;;;4.25;2.10;;;;;;;;;;4919438;29;20036;-71
2023/12/27 18:23:24;;;;;;;8.25;1.98;;;;;;;;;;4936424;29;20178;-68
2023/12/27 18:25:49;;;;;;;12.77;2.30;;;;;;;;;;4936763;29;20086;-70
2023/12/27 18:28:15;;;;;;;5.00;3.03;;;;;;;;;;4936245;29;20039;-71
2023/12/27 18:30:40;;;;;;;5.53;2.20;;;;;;;;;;4936511;29;20043;-72
2023/12/27 18:33:06;;;;;;;1.92;1.63;;;;;;;;;;4936508;29;20388;-71
2023/12/27 18:35:32;;;;;;;6.68;2.10;;;;;;;;;;4936153;29;20035;-68
2023/12/27 18:37:58;;;;;;;5.90;2.30;;;;;;;;;;4936032;29;20624;-68
2023/12/27 18:40:24;;;;;;;3.17;2.10;;;;;;;;;;4936103;29;20032;-70
2023/12/27 18:42:50;;;;;;;12.98;2.28;;;;;;;;;;4936106;29;20114;-72
2023/12/27 18:45:16;;;;;;;6.22;2.22;;;;;;;;;;4935868;29;20126;-67
2023/12/27 18:47:44;;;;;;;13.07;2.15;;;;;;;;;;4936079;29;20031;-69
2023/12/27 18:50:10;;;;;;;7.82;2.15;;;;;;;;;;4935868;29;20035;-67
2023/12/27 18:52:36;;;;;;;11.98;2.20;;;;;;;;;;4935958;29;20051;-67
2023/12/27 18:55:04;;;;;;;7.20;2.00;;;;;;;;;;4935879;29;20516;-68
2023/12/27 18:57:31;;;;;;;4.60;2.50;;;;;;;;;;4935817;29;20119;-68
2023/12/27 18:59:57;;;;;;;8.18;2.22;;;;;;;;;;4936003;29;20031;-67
2023/12/27 19:02:22;;;;;;;3.65;2.10;;;;;;;;;;4935934;29;20365;-65
2023/12/27 19:04:48;;;;;;;9.82;1.90;;;;;;;;;;4936042;29;20634;-66
2023/12/27 19:07:13;;;;;;;2.55;1.98;;;;;;;;;;4935936;29;20058;-67
2023/12/27 19:09:39;;;;;;;7.35;2.78;;;;;;;;;;4935810;29;20116;-67
2023/12/27 19:12:06;;;;;;;14.70;2.75;;;;;;;;;;4936019;29;20027;-67
2023/12/27 19:14:32;;;;;;;7.03;2.40;;;;;;;;;;4935656;29;20038;-67
2023/12/27 19:16:58;;;;;;;8.23;2.67;;;;;;;;;;4935377;29;20032;-67
2023/12/27 19:19:23;;;;;;;9.52;2.20;;;;;;;;;;4935913;29;20031;-72
2023/12/27 19:21:51;;;;;;;13.15;2.78;;;;;;;;;;4935448;29;20039;-69
2023/12/27 19:24:17;;;;;;;7.78;2.30;;;;;;;;;;4917964;29;20445;-68
2023/12/27 19:26:43;;;;;;;9.00;2.50;;;;;;;;;;4909826;29;20041;-71
2023/12/27 19:29:09;;;;;;;6.28;2.33;;;;;;;;;;4911124;29;20020;-66
2023/12/27 19:31:35;;;;;;;6.45;2.30;;;;;;;;;;4899203;29;20103;-68
2023/12/27 19:34:02;;;;;;;14.35;2.90;;;;;;;;;;4916361;29;20072;-69
2023/12/27 19:36:28;;;;;;;11.40;2.42;;;;;;;;;;4916166;29;20477;-68
2023/12/27 19:38:54;;;;;;;7.10;2.30;;;;;;;;;;4915981;29;20075;-72
2023/12/27 19:41:19;;;;;;;12.20;2.25;;;;;;;;;;4916429;29;20055;-69
2023/12/27 19:43:45;;;;;;;4.80;2.10;;;;;;;;;;4899254;29;20036;-67
2023/12/27 19:46:11;;;;;;;7.10;2.47;;;;;;;;;;4915915;29;20135;-67
2023/12/27 19:48:38;;;;;;;11.77;2.30;;;;;;;;;;4915927;29;20508;-67
2023/12/27 19:51:05;;;;;;;5.68;2.20;;;;;;;;;;4916164;29;20485;-67
2023/12/27 19:53:32;;;;;;;5.38;2.72;;;;;;;;;;4916112;29;20490;-67
2023/12/27 19:55:57;;;;;;;13.32;2.45;;;;;;;;;;4915712;29;20097;-68
2023/12/27 19:58:23;;;;;;;8.60;2.95;;;;;;;;;;4916060;29;20080;-67
2023/12/27 20:00:49;;;;;;;5.93;2.65;;;;;;;;;;4916058;29;20042;-66
2023/12/27 20:03:14;;;;;;;5.45;2.65;;;;;;;;;;4915746;29;20035;-68
2023/12/27 20:05:40;;;;;;;7.95;2.30;;;;;;;;;;4915545;29;20103;-72
2023/12/27 20:08:06;;;;;;;8.25;2.80;;;;;;;;;;4916618;29;20485;-67
2023/12/27 20:10:31;;;;;;;4.68;2.50;;;;;;;;;;4917194;29;20032;-67
2023/12/27 20:13:00;;;;;;;10.88;2.45;;;;;;;;;;4917395;29;20095;-67
2023/12/27 20:15:27;;;;;;;9.98;2.60;;;;;;;;;;4917179;29;20074;-67
2023/12/27 20:17:52;;;;;;;11.55;2.50;;;;;;;;;;4917031;29;20481;-67
2023/12/27 20:20:18;;;;;;;5.10;2.55;;;;;;;;;;4917020;29;20092;-67
2023/12/27 20:22:43;;;;;;;9.05;2.42;;;;;;;;;;4917267;29;20032;-67
2023/12/27 20:25:09;;;;;;;13.35;2.95;;;;;;;;;;4916951;29;20028;-67
2023/12/27 20:27:35;;;;;;;9.45;2.50;;;;;;;;;;4917055;29;20032;-68
2023/12/27 20:30:00;;;;;;;5.93;2.17;;;;;;;;;;4916882;29;20417;-67
2023/12/27 20:32:26;;;;;;;9.10;2.30;;;;;;;;;;4916366;29;20091;-67
2023/12/27 20:34:56;;;;;;;9.15;2.40;;;;;;;;;;4916819;29;20107;-67
2023/12/27 20:37:22;;;;;;;13.43;2.90;;;;;;;;;;4916945;29;20461;-68
2023/12/27 20:39:49;;;;;;;6.00;2.60;;;;;;;;;;4916831;29;20496;-68
2023/12/27 20:42:15;;;;;;;4.80;2.50;;;;;;;;;;4916658;29;20062;-67
2023/12/27 20:44:40;;;;;;;5.38;2.45;;;;;;;;;;4913275;29;20101;-68
2023/12/27 20:47:06;;;;;;;6.60;2.50;;;;;;;;;;4907412;29;20082;-71
2023/12/27 20:49:34;;;;;;;5.63;2.08;;;;;;;;;;4907102;29;20021;-71
2023/12/27 20:52:03;;;;;;;3.92;2.25;;;;;;;;;;4905695;29;20031;-67
2023/12/27 20:54:31;;;;;;;4.30;2.60;;;;;;;;;;4906732;29;20120;-72
2023/12/27 20:56:57;;;;;;;5.32;2.38;;;;;;;;;;4907402;29;20095;-71
2023/12/27 20:59:23;;;;;;;5.63;2.40;;;;;;;;;;4902539;29;20430;-68
2023/12/27 21:01:50;;;;;;;5.55;2.45;;;;;;;;;;4897530;29;20028;-69
2023/12/27 21:04:16;;;;;;;3.60;2.50;;;;;;;;;;4897504;29;20024;-69
2023/12/27 21:06:41;;;;;;;4.35;2.33;;;;;;;;;;4886982;29;20400;-69
2023/12/27 21:09:07;;;;;;;4.55;2.50;;;;;;;;;;4916568;29;20101;-68
2023/12/27 21:11:43;;;;;;;7.43;2.22;;;;;;;;;;4916229;29;20024;-69
2023/12/27 21:14:09;;;;;;;8.88;2.60;;;;;;;;;;4916331;29;20381;-69
2023/12/27 21:16:37;;;;;;;5.47;2.30;;;;;;;;;;4916068;29;20028;-69
2023/12/27 21:19:02;;;;;;;3.75;2.15;;;;;;;;;;4916182;29;20075;-68
2023/12/27 21:21:28;;;;;;;5.78;2.10;;;;;;;;;;4899162;29;20078;-68
2023/12/27 21:23:53;;;;;;;6.07;2.42;;;;;;;;;;4916073;29;20032;-67
2023/12/27 21:26:21;;;;;;;5.18;2.10;;;;;;;;;;4916244;29;20032;-68
2023/12/27 21:28:47;;;;;;;6.78;2.42;;;;;;;;;;4908583;29;20490;-68
2023/12/27 21:31:16;;;;;;;3.88;2.22;;;;;;;;;;4897192;29;20040;-68
2023/12/27 21:33:41;;;;;;;5.95;2.30;;;;;;;;;;4897227;29;20021;-68
2023/12/27 21:36:08;;;;;;;6.82;2.45;;;;;;;;;;4897371;29;20028;-68
2023/12/27 21:38:34;;;;;;;3.45;2.30;;;;;;;;;;4880201;29;20052;-69
2023/12/27 21:41:01;;;;;;;4.90;2.10;;;;;;;;;;4897370;29;20031;-67
2023/12/27 21:43:27;;;;;;;5.07;2.13;;;;;;;;;;4898416;29;20100;-67
2023/12/27 21:45:53;;;;;;;4.50;2.75;;;;;;;;;;4904376;29;20518;-67
2023/12/27 21:48:18;;;;;;;3.13;2.00;;;;;;;;;;4919856;29;20032;-67
2023/12/27 21:50:44;;;;;;;7.55;2.22;;;;;;;;;;4919902;29;20106;-67
2023/12/27 21:53:09;;;;;;;2.78;2.03;;;;;;;;;;4902357;29;20407;-68
2023/12/27 21:55:35;;;;;;;3.78;2.55;;;;;;;;;;4919614;29;20035;-67
2023/12/27 21:58:02;;;;;;;3.20;2.05;;;;;;;;;;4902602;29;20501;-68
2023/12/27 22:00:27;;;;;;;5.25;2.15;;;;;;;;;;4919652;29;20437;-67
2023/12/27 22:02:56;;;;;;;5.53;2.50;;;;;;;;;;4919516;29;20056;-68
2023/12/27 22:05:23;;;;;;;2.72;1.90;;;;;;;;;;4919511;29;20035;-68
2023/12/27 22:07:49;;;;;;;5.20;2.75;;;;;;;;;;4919346;29;20035;-68
2023/12/27 22:10:17;;;;;;;4.97;2.25;;;;;;;;;;4919614;29;20024;-67
2023/12/27 22:12:42;;;;;;;3.47;2.35;;;;;;;;;;4919329;29;20039;-68
2023/12/27 22:15:08;;;;;;;5.03;2.78;;;;;;;;;;4902261;29;20028;-68
2023/12/27 22:17:34;;;;;;;5.50;2.60;;;;;;;;;;4919576;29;20111;-68
2023/12/27 22:19:59;;;;;;;3.20;2.05;;;;;;;;;;4919792;29;20031;-67
2023/12/27 22:22:25;;;;;;;4.68;2.30;;;;;;;;;;4912657;29;20028;-67
2023/12/27 22:24:51;;;;;;;5.80;2.35;;;;;;;;;;4908730;29;20088;-67
2023/12/27 22:27:17;;;;;;;5.13;2.35;;;;;;;;;;4909356;29;20023;-67
2023/12/27 22:29:42;;;;;;;2.30;2.10;;;;;;;;;;4909390;29;20156;-67
2023/12/27 22:32:08;;;;;;;4.50;1.90;;;;;;;;;;4907218;29;20035;-67
2023/12/27 22:34:37;;;;;;;5.97;2.45;;;;;;;;;;4908769;29;20040;-68
2023/12/27 22:37:03;;;;;;;2.80;2.10;;;;;;;;;;4909680;29;20028;-66
2023/12/27 22:39:29;;;;;;;4.25;1.95;;;;;;;;;;4912273;29;20039;-66
2023/12/27 22:41:54;;;;;;;4.45;2.42;;;;;;;;;;4918718;29;20028;-66
2023/12/27 22:44:20;;;;;;;6.05;2.13;;;;;;;;;;4906041;29;20385;-66
2023/12/27 22:46:46;;;;;;;3.58;2.17;;;;;;;;;;4910029;29;20386;-68
2023/12/27 22:49:12;;;;;;;2.95;2.38;;;;;;;;;;4891826;29;20494;-65
2023/12/27 22:51:38;;;;;;;6.47;2.10;;;;;;;;;;4908920;29;20028;-66
2023/12/27 22:54:03;;;;;;;4.88;2.15;;;;;;;;;;4909831;29;20091;-70
2023/12/27 22:56:29;;;;;;;7.68;2.38;;;;;;;;;;4906916;29;20088;-65
2023/12/27 22:58:55;;;;;;;3.55;2.80;;;;;;;;;;4909786;29;20019;-66
2023/12/27 23:01:20;;;;;;;3.40;2.28;;;;;;;;;;4908691;29;20024;-66
2023/12/27 23:03:46;;;;;;;3.92;2.10;;;;;;;;;;4909108;29;20025;-66
2023/12/27 23:06:11;;;;;;;4.07;2.17;;;;;;;;;;4907305;29;20056;-67
2023/12/27 23:08:37;;;;;;;3.95;2.30;;;;;;;;;;4908746;29;20098;-66
2023/12/27 23:11:03;;;;;;;3.03;2.10;;;;;;;;;;4909170;29;20032;-66
2023/12/27 23:13:29;;;;;;;6.95;2.42;;;;;;;;;;4907186;29;20025;-67
2023/12/27 23:15:54;;;;;;;6.88;2.22;;;;;;;;;;4909172;29;20051;-66
2023/12/27 23:18:20;;;;;;;4.57;2.08;;;;;;;;;;4906136;29;20492;-67
2023/12/27 23:20:45;;;;;;;3.67;2.08;;;;;;;;;;4907633;29;20030;-67
2023/12/27 23:23:11;;;;;;;2.75;2.10;;;;;;;;;;4909237;29;20036;-67
2023/12/27 23:25:37;;;;;;;3.28;2.30;;;;;;;;;;4907861;29;20024;-66
2023/12/27 23:28:03;;;;;;;3.13;2.28;;;;;;;;;;4907774;29;20047;-66
2023/12/27 23:30:29;;;;;;;4.43;2.25;;;;;;;;;;4908925;29;20021;-67
2023/12/27 23:32:55;;;;;;;2.88;2.08;;;;;;;;;;4907179;29;20108;-73